sensor_id;sensor_type;location;lat;lon;timestamp;temperature;humidity
55711;DHT22;41612;51.994;5.880;2023-06-26T00:01:35;25.50;60.90
55711;DHT22;41612;51.994;5.880;2023-06-26T00:04:01;25.50;61.00
55711;DHT22;41612;51.994;5.880;2023-06-26T00:06:27;25.40;61.00
55711;DHT22;41612;51.994;5.880;2023-06-26T00:08:54;25.40;61.10
55711;DHT22;41612;51.994;5.880;2023-06-26T00:11:24;25.30;61.10
55711;DHT22;41612;51.994;5.880;2023-06-26T00:13:54;25.40;60.80
55711;DHT22;41612;51.994;5.880;2023-06-26T00:16:20;25.30;60.80
55711;DHT22;41612;51.994;5.880;2023-06-26T00:18:46;25.30;60.60
55711;DHT22;41612;51.994;5.880;2023-06-26T00:21:15;25.30;60.70
55711;DHT22;41612;51.994;5.880;2023-06-26T00:23:44;25.30;60.40
55711;DHT22;41612;51.994;5.880;2023-06-26T00:26:10;25.30;60.40
55711;DHT22;41612;51.994;5.880;2023-06-26T00:28:39;25.30;59.90
55711;DHT22;41612;51.994;5.880;2023-06-26T00:31:05;25.20;59.80
55711;DHT22;41612;51.994;5.880;2023-06-26T00:33:31;25.20;59.70
55711;DHT22;41612;51.994;5.880;2023-06-26T00:35:57;25.20;60.00
55711;DHT22;41612;51.994;5.880;2023-06-26T00:38:23;25.20;60.10
55711;DHT22;41612;51.994;5.880;2023-06-26T00:40:49;25.20;60.00
55711;DHT22;41612;51.994;5.880;2023-06-26T00:43:17;25.20;60.00
55711;DHT22;41612;51.994;5.880;2023-06-26T00:45:43;25.10;60.40
55711;DHT22;41612;51.994;5.880;2023-06-26T00:48:19;25.10;60.40
55711;DHT22;41612;51.994;5.880;2023-06-26T00:50:45;25.00;59.80
55711;DHT22;41612;51.994;5.880;2023-06-26T00:53:14;25.00;60.10
55711;DHT22;41612;51.994;5.880;2023-06-26T00:55:40;24.90;60.20
55711;DHT22;41612;51.994;5.880;2023-06-26T00:58:06;24.90;59.90
55711;DHT22;41612;51.994;5.880;2023-06-26T01:00:34;24.90;60.40
55711;DHT22;41612;51.994;5.880;2023-06-26T01:03:03;24.90;59.70
55711;DHT22;41612;51.994;5.880;2023-06-26T01:05:32;24.90;59.80
55711;DHT22;41612;51.994;5.880;2023-06-26T01:08:09;25.00;60.30
55711;DHT22;41612;51.994;5.880;2023-06-26T01:10:35;25.00;59.90
55711;DHT22;41612;51.994;5.880;2023-06-26T01:13:02;25.00;60.40
55711;DHT22;41612;51.994;5.880;2023-06-26T01:15:32;25.00;59.90
55711;DHT22;41612;51.994;5.880;2023-06-26T01:17:59;25.00;60.00
55711;DHT22;41612;51.994;5.880;2023-06-26T01:20:36;25.00;59.60
55711;DHT22;41612;51.994;5.880;2023-06-26T01:23:35;24.90;59.90
55711;DHT22;41612;51.994;5.880;2023-06-26T01:28:44;24.90;59.80
55711;DHT22;41612;51.994;5.880;2023-06-26T01:31:23;24.80;60.10
55711;DHT22;41612;51.994;5.880;2023-06-26T01:33:50;24.80;59.40
55711;DHT22;41612;51.994;5.880;2023-06-26T01:36:24;24.70;59.60
55711;DHT22;41612;51.994;5.880;2023-06-26T01:38:50;24.70;60.00
55711;DHT22;41612;51.994;5.880;2023-06-26T01:41:22;24.70;60.40
55711;DHT22;41612;51.994;5.880;2023-06-26T01:44:21;24.60;60.50
55711;DHT22;41612;51.994;5.880;2023-06-26T01:49:43;24.50;60.60
55711;DHT22;41612;51.994;5.880;2023-06-26T01:52:33;24.50;60.50
55711;DHT22;41612;51.994;5.880;2023-06-26T01:57:51;24.40;60.70
55711;DHT22;41612;51.994;5.880;2023-06-26T02:00:22;24.30;60.90
55711;DHT22;41612;51.994;5.880;2023-06-26T02:02:48;24.30;61.00
55711;DHT22;41612;51.994;5.880;2023-06-26T02:05:14;24.20;60.30
55711;DHT22;41612;51.994;5.880;2023-06-26T02:07:40;24.20;60.70
55711;DHT22;41612;51.994;5.880;2023-06-26T02:10:06;24.20;60.70
55711;DHT22;41612;51.994;5.880;2023-06-26T02:12:36;24.10;60.60
55711;DHT22;41612;51.994;5.880;2023-06-26T02:15:08;24.10;61.00
55711;DHT22;41612;51.994;5.880;2023-06-26T02:17:41;24.00;61.30
55711;DHT22;41612;51.994;5.880;2023-06-26T02:20:07;24.00;61.50
55711;DHT22;41612;51.994;5.880;2023-06-26T02:22:36;24.00;60.40
55711;DHT22;41612;51.994;5.880;2023-06-26T02:25:02;23.90;60.80
55711;DHT22;41612;51.994;5.880;2023-06-26T02:27:28;23.70;60.60
55711;DHT22;41612;51.994;5.880;2023-06-26T02:29:54;23.70;61.60
55711;DHT22;41612;51.994;5.880;2023-06-26T02:32:20;23.70;61.40
55711;DHT22;41612;51.994;5.880;2023-06-26T02:34:49;23.70;61.30
55711;DHT22;41612;51.994;5.880;2023-06-26T02:37:20;23.60;61.70
55711;DHT22;41612;51.994;5.880;2023-06-26T02:39:46;23.60;61.50
55711;DHT22;41612;51.994;5.880;2023-06-26T02:42:15;23.50;61.50
55711;DHT22;41612;51.994;5.880;2023-06-26T02:44:41;23.40;61.90
55711;DHT22;41612;51.994;5.880;2023-06-26T02:47:07;23.40;61.60
55711;DHT22;41612;51.994;5.880;2023-06-26T02:49:39;23.30;62.00
55711;DHT22;41612;51.994;5.880;2023-06-26T02:52:05;23.20;62.50
55711;DHT22;41612;51.994;5.880;2023-06-26T02:54:31;23.20;62.60
55711;DHT22;41612;51.994;5.880;2023-06-26T02:57:20;23.20;62.80
55711;DHT22;41612;51.994;5.880;2023-06-26T02:59:46;23.10;62.10
55711;DHT22;41612;51.994;5.880;2023-06-26T03:02:16;23.00;62.60
55711;DHT22;41612;51.994;5.880;2023-06-26T03:04:47;23.00;63.10
55711;DHT22;41612;51.994;5.880;2023-06-26T03:07:17;22.90;63.10
55711;DHT22;41612;51.994;5.880;2023-06-26T03:09:45;22.80;63.70
55711;DHT22;41612;51.994;5.880;2023-06-26T03:12:17;22.70;63.70
55711;DHT22;41612;51.994;5.880;2023-06-26T03:14:49;22.70;64.20
55711;DHT22;41612;51.994;5.880;2023-06-26T03:17:16;22.70;64.10
55711;DHT22;41612;51.994;5.880;2023-06-26T03:22:23;22.70;64.40
55711;DHT22;41612;51.994;5.880;2023-06-26T03:24:49;22.70;64.40
55711;DHT22;41612;51.994;5.880;2023-06-26T03:27:15;22.60;64.70
55711;DHT22;41612;51.994;5.880;2023-06-26T03:29:41;22.60;64.90
55711;DHT22;41612;51.994;5.880;2023-06-26T03:32:07;22.50;65.10
55711;DHT22;41612;51.994;5.880;2023-06-26T03:34:39;22.40;65.40
55711;DHT22;41612;51.994;5.880;2023-06-26T03:37:10;22.30;65.80
55711;DHT22;41612;51.994;5.880;2023-06-26T03:39:42;22.20;65.90
55711;DHT22;41612;51.994;5.880;2023-06-26T03:42:11;22.20;66.10
55711;DHT22;41612;51.994;5.880;2023-06-26T03:44:40;22.20;66.10
55711;DHT22;41612;51.994;5.880;2023-06-26T03:47:06;22.20;65.90
55711;DHT22;41612;51.994;5.880;2023-06-26T03:49:32;22.20;66.10
55711;DHT22;41612;51.994;5.880;2023-06-26T03:51:58;22.20;66.10
55711;DHT22;41612;51.994;5.880;2023-06-26T03:54:31;22.20;66.30
55711;DHT22;41612;51.994;5.880;2023-06-26T03:56:59;22.20;66.70
55711;DHT22;41612;51.994;5.880;2023-06-26T03:59:28;22.10;66.80
55711;DHT22;41612;51.994;5.880;2023-06-26T04:01:54;22.10;67.10
55711;DHT22;41612;51.994;5.880;2023-06-26T04:04:20;22.10;67.00
55711;DHT22;41612;51.994;5.880;2023-06-26T04:06:47;22.10;66.90
55711;DHT22;41612;51.994;5.880;2023-06-26T04:09:13;22.00;67.20
55711;DHT22;41612;51.994;5.880;2023-06-26T04:11:39;22.00;67.50
55711;DHT22;41612;51.994;5.880;2023-06-26T04:14:07;22.00;67.20
55711;DHT22;41612;51.994;5.880;2023-06-26T04:16:33;22.00;67.80
55711;DHT22;41612;51.994;5.880;2023-06-26T04:19:01;21.90;68.20
55711;DHT22;41612;51.994;5.880;2023-06-26T04:21:30;21.90;68.50
55711;DHT22;41612;51.994;5.880;2023-06-26T04:23:59;21.90;68.00
55711;DHT22;41612;51.994;5.880;2023-06-26T04:26:25;22.00;67.90
55711;DHT22;41612;51.994;5.880;2023-06-26T04:28:51;22.00;68.20
55711;DHT22;41612;51.994;5.880;2023-06-26T04:31:20;22.00;67.40
55711;DHT22;41612;51.994;5.880;2023-06-26T04:33:46;22.00;68.10
55711;DHT22;41612;51.994;5.880;2023-06-26T04:36:18;21.90;68.60
55711;DHT22;41612;51.994;5.880;2023-06-26T04:38:44;21.80;68.40
55711;DHT22;41612;51.994;5.880;2023-06-26T04:41:10;21.80;68.90
55711;DHT22;41612;51.994;5.880;2023-06-26T04:43:36;21.80;68.40
55711;DHT22;41612;51.994;5.880;2023-06-26T04:46:10;21.80;68.80
55711;DHT22;41612;51.994;5.880;2023-06-26T04:48:36;21.80;69.00
55711;DHT22;41612;51.994;5.880;2023-06-26T04:51:08;21.70;68.70
55711;DHT22;41612;51.994;5.880;2023-06-26T04:53:34;21.70;69.30
55711;DHT22;41612;51.994;5.880;2023-06-26T04:55:59;21.70;69.40
55711;DHT22;41612;51.994;5.880;2023-06-26T04:58:27;21.70;68.70
55711;DHT22;41612;51.994;5.880;2023-06-26T05:01:13;21.70;68.90
55711;DHT22;41612;51.994;5.880;2023-06-26T05:10:03;21.70;68.40
55711;DHT22;41612;51.994;5.880;2023-06-26T05:12:33;21.70;68.90
55711;DHT22;41612;51.994;5.880;2023-06-26T05:15:01;21.80;67.70
55711;DHT22;41612;51.994;5.880;2023-06-26T05:17:27;21.90;67.60
55711;DHT22;41612;51.994;5.880;2023-06-26T05:19:53;21.90;67.70
55711;DHT22;41612;51.994;5.880;2023-06-26T05:22:19;22.00;68.00
55711;DHT22;41612;51.994;5.880;2023-06-26T05:24:55;22.00;68.70
55711;DHT22;41612;51.994;5.880;2023-06-26T05:27:28;22.00;67.90
55711;DHT22;41612;51.994;5.880;2023-06-26T05:29:56;22.10;66.40
55711;DHT22;41612;51.994;5.880;2023-06-26T05:32:38;22.20;66.00
55711;DHT22;41612;51.994;5.880;2023-06-26T05:35:13;22.30;65.80
55711;DHT22;41612;51.994;5.880;2023-06-26T05:37:42;22.50;65.40
55711;DHT22;41612;51.994;5.880;2023-06-26T05:40:09;22.70;64.30
55711;DHT22;41612;51.994;5.880;2023-06-26T05:42:35;22.80;64.30
55711;DHT22;41612;51.994;5.880;2023-06-26T05:45:04;22.80;64.50
55711;DHT22;41612;51.994;5.880;2023-06-26T05:47:37;22.70;64.30
55711;DHT22;41612;51.994;5.880;2023-06-26T05:50:04;22.60;64.50
55711;DHT22;41612;51.994;5.880;2023-06-26T05:52:30;22.70;64.30
55711;DHT22;41612;51.994;5.880;2023-06-26T05:55:01;22.70;64.00
55711;DHT22;41612;51.994;5.880;2023-06-26T05:57:36;22.70;63.90
55711;DHT22;41612;51.994;5.880;2023-06-26T06:00:03;22.70;64.00
